Terminal Aerodrome Forecast
Issued by NWS

Home | Current Version | Previous Version | Text Only | Print | Product List | Glossary On
Versions: 1 2 3 4 5 6 7 8 9 10 11 12 13 14
000
FTUS45 KTFX 301734
TAFLWT
TAF
KLWT 301734Z 3018/3118 29015G25KT P6SM -SHRA FEW010 BKN025
     FM302200 31015G25KT P6SM SCT025 BKN040
     FM310200 29015KT P6SM SCT040
     FM310900 28015G30KT P6SM VCSH BKN015=

USA.gov is the U.S. government's official web portal to all federal, state and local government web resources and services.